Time;durP1;ratioP1;P1;durP2;ratioP2;P2;SDS_P1;SDS_P2;PMS_P1;PMS_P2;Temp;Humidity;BMP_temperature;BMP_pressure;BME280_temperature;BME280_humidity;BME280_pressure;Samples;Min_cycle;Max_cycle;Signal;HPM_P1;HPM_P2
2021/08/15 00:01:47;;;;;;;;;;;18.40;99.90;;;;;;5111769;28;19955;-75
2021/08/15 00:04:12;;;;;;;;;;;18.30;99.90;;;;;;5112107;28;19950;-76
2021/08/15 00:06:38;;;;;;;;;;;18.30;99.90;;;;;;5095795;28;20280;-76
2021/08/15 00:09:04;;;;;;;;;;;18.30;99.90;;;;;;5091065;28;19919;-76
2021/08/15 00:11:29;;;;;;;;;;;18.30;99.90;;;;;;5089850;28;19908;-76
2021/08/15 00:13:55;;;;;;;;;;;18.20;99.90;;;;;;5091266;28;19908;-76
2021/08/15 00:16:21;;;;;;;;;;;18.20;99.90;;;;;;5090943;28;19943;-76
2021/08/15 00:18:46;;;;;;;;;;;18.20;99.90;;;;;;5091338;28;19957;-77
2021/08/15 00:21:12;;;;;;;;;;;18.20;99.90;;;;;;5091680;28;19989;-76
2021/08/15 00:23:38;;;;;;;;;;;18.20;99.90;;;;;;5091517;28;20309;-76
2021/08/15 00:26:03;;;;;;;;;;;18.20;99.90;;;;;;5090885;28;20019;-77
2021/08/15 00:28:29;;;;;;;;;;;18.10;99.90;;;;;;5091597;28;19917;-76
2021/08/15 00:30:54;;;;;;;;;;;18.10;99.90;;;;;;5091087;28;20206;-76
2021/08/15 00:33:20;;;;;;;;;;;18.10;99.90;;;;;;5090988;28;19908;-76
2021/08/15 00:35:45;;;;;;;;;;;18.10;99.90;;;;;;5084935;28;20100;-76
2021/08/15 00:38:11;;;;;;;;;;;18.10;99.90;;;;;;5089332;28;19908;-76
2021/08/15 00:40:36;;;;;;;;;;;18.10;99.90;;;;;;5092255;28;19912;-76
2021/08/15 00:43:02;;;;;;;;;;;18.10;99.90;;;;;;5095030;28;19909;-76
2021/08/15 00:45:28;;;;;;;;;;;18.10;99.90;;;;;;5094840;28;19947;-76
2021/08/15 00:47:53;;;;;;;;;;;18.00;99.90;;;;;;5094638;28;19934;-76
2021/08/15 00:50:19;;;;;;;;;;;18.00;99.90;;;;;;5095152;28;20011;-76
2021/08/15 00:52:45;;;;;;;;;;;18.00;99.90;;;;;;5094857;28;19908;-76
2021/08/15 00:55:11;;;;;;;;;;;17.90;99.90;;;;;;5094707;28;20281;-76
2021/08/15 00:57:40;;;;;;;;;;;17.90;99.90;;;;;;5094441;28;19966;-76
2021/08/15 01:00:07;;;;;;;;;;;18.00;99.90;;;;;;5094644;28;19916;-76
2021/08/15 01:02:33;;;;;;;;;;;18.00;99.90;;;;;;5094558;28;19909;-76
2021/08/15 01:04:59;;;;;;;;;;;17.90;99.90;;;;;;5094469;28;20000;-76
2021/08/15 01:07:25;;;;;;;;;;;17.90;99.90;;;;;;5094143;28;19951;-76
2021/08/15 01:09:50;;;;;;;;;;;17.80;99.90;;;;;;5093094;28;19915;-76
2021/08/15 01:12:16;;;;;;;;;;;17.80;99.90;;;;;;5093065;28;19912;-76
2021/08/15 01:14:42;;;;;;;;;;;17.80;99.90;;;;;;5094553;28;19916;-76
2021/08/15 01:17:07;;;;;;;;;;;17.80;99.90;;;;;;5093952;28;19955;-76
2021/08/15 01:19:33;;;;;;;;;;;17.70;99.90;;;;;;5092770;28;19955;-76
2021/08/15 01:21:58;;;;;;;;;;;17.70;99.90;;;;;;5094296;28;19908;-76
2021/08/15 01:24:25;;;;;;;;;;;17.70;99.90;;;;;;5092891;28;19912;-76
2021/08/15 01:26:51;;;;;;;;;;;17.70;99.90;;;;;;5093817;28;19986;-76
2021/08/15 01:29:19;;;;;;;;;;;17.70;99.90;;;;;;5094085;28;19934;-76
2021/08/15 01:31:44;;;;;;;;;;;17.60;99.90;;;;;;5093980;28;19908;-76
2021/08/15 01:34:10;;;;;;;;;;;17.60;99.90;;;;;;5093897;28;19908;-76
2021/08/15 01:36:35;;;;;;;;;;;17.50;99.90;;;;;;5087696;28;20058;-76
2021/08/15 01:39:01;;;;;;;;;;;17.50;99.90;;;;;;5093757;28;19908;-76
2021/08/15 01:41:27;;;;;;;;;;;17.50;99.90;;;;;;5092510;28;20315;-76
2021/08/15 01:44:00;;;;;;;;;;;17.50;99.90;;;;;;5093997;28;20361;-76
2021/08/15 01:46:34;;;;;;;;;;;17.40;99.90;;;;;;5092153;28;20288;-76
2021/08/15 01:49:01;;;;;;;;;;;17.40;99.90;;;;;;5093790;28;19919;-76
2021/08/15 01:51:26;;;;;;;;;;;17.30;99.90;;;;;;5093472;28;19912;-76
2021/08/15 01:53:53;;;;;;;;;;;17.30;99.90;;;;;;5093339;28;19915;-76
2021/08/15 01:56:19;;;;;;;;;;;17.30;99.90;;;;;;5093339;28;19908;-76
2021/08/15 01:58:45;;;;;;;;;;;17.20;99.90;;;;;;5093533;28;20387;-76
2021/08/15 02:01:14;;;;;;;;;;;17.20;99.90;;;;;;5093242;28;20330;-76
2021/08/15 02:03:39;;;;;;;;;;;17.10;99.90;;;;;;5093531;28;19908;-76
2021/08/15 02:06:05;;;;;;;;;;;17.10;99.90;;;;;;5087290;28;19909;-76
2021/08/15 02:08:30;;;;;;;;;;;17.10;99.90;;;;;;5093080;28;19912;-76
2021/08/15 02:10:56;;;;;;;;;;;17.10;99.90;;;;;;5093235;28;19912;-76
2021/08/15 02:13:21;;;;;;;;;;;17.00;99.90;;;;;;5093301;28;19912;-76
2021/08/15 02:15:47;;;;;;;;;;;17.10;99.90;;;;;;5092942;28;19931;-76
2021/08/15 02:18:12;;;;;;;;;;;17.00;99.90;;;;;;5092842;28;19939;-76
2021/08/15 02:20:38;;;;;;;;;;;16.90;99.90;;;;;;5093043;28;19908;-76
2021/08/15 02:23:04;;;;;;;;;;;16.90;99.90;;;;;;5092767;28;19960;-76
2021/08/15 02:25:29;;;;;;;;;;;16.90;99.90;;;;;;5091765;28;19913;-76
2021/08/15 02:27:55;;;;;;;;;;;16.90;99.90;;;;;;5092337;28;19912;-76
2021/08/15 02:30:21;;;;;;;;;;;16.80;99.90;;;;;;5091353;28;19908;-76
2021/08/15 02:32:48;;;;;;;;;;;16.80;99.90;;;;;;5092891;28;19915;-76
2021/08/15 02:35:14;;;;;;;;;;;16.70;99.90;;;;;;5090756;28;20368;-76
2021/08/15 02:37:40;;;;;;;;;;;16.70;99.90;;;;;;5088659;28;19947;-76
2021/08/15 02:40:07;;;;;;;;;;;16.70;99.90;;;;;;5092713;28;19908;-76
2021/08/15 02:42:34;;;;;;;;;;;16.70;99.90;;;;;;5092697;28;20104;-76
2021/08/15 02:44:59;;;;;;;;;;;16.70;99.90;;;;;;5092387;28;19948;-76
2021/08/15 02:47:25;;;;;;;;;;;16.70;99.90;;;;;;5092303;28;19962;-76
2021/08/15 02:49:50;;;;;;;;;;;16.70;99.90;;;;;;5092554;28;19937;-76
2021/08/15 02:52:16;;;;;;;;;;;16.70;99.90;;;;;;5092467;28;19920;-76
2021/08/15 02:54:42;;;;;;;;;;;16.60;99.90;;;;;;5090823;28;19912;-76
2021/08/15 02:57:08;;;;;;;;;;;16.60;99.90;;;;;;5090769;28;19922;-76
2021/08/15 02:59:39;;;;;;;;;;;16.60;99.90;;;;;;5092071;28;19908;-76
2021/08/15 03:02:22;;;;;;;;;;;16.60;99.90;;;;;;5092314;28;19912;-76
2021/08/15 03:04:48;;;;;;;;;;;16.60;99.90;;;;;;5091218;28;19995;-76
2021/08/15 03:07:14;;;;;;;;;;;16.50;99.90;;;;;;5085582;28;20011;-76
2021/08/15 03:09:40;;;;;;;;;;;16.50;99.90;;;;;;5108918;28;19954;-76
2021/08/15 03:12:05;;;;;;;;;;;16.50;99.90;;;;;;5112232;28;20364;-76
2021/08/15 03:14:31;;;;;;;;;;;16.40;99.90;;;;;;5112290;28;19908;-76
2021/08/15 03:16:56;;;;;;;;;;;16.40;99.90;;;;;;5111976;28;19918;-76
2021/08/15 03:19:22;;;;;;;;;;;16.40;99.90;;;;;;5112102;28;19915;-76
2021/08/15 03:21:47;;;;;;;;;;;16.40;99.90;;;;;;5110914;28;19915;-76
2021/08/15 03:24:13;;;;;;;;;;;16.40;99.90;;;;;;5112339;28;19908;-76
2021/08/15 03:26:43;;;;;;;;;;;16.40;99.90;;;;;;5111696;28;19918;-76
2021/08/15 03:29:08;;;;;;;;;;;16.40;99.90;;;;;;5112070;28;20010;-76
2021/08/15 03:31:34;;;;;;;;;;;16.50;99.90;;;;;;5112018;28;20008;-76
2021/08/15 03:33:59;;;;;;;;;;;16.50;99.90;;;;;;5112096;28;19933;-76
2021/08/15 03:36:26;;;;;;;;;;;16.50;99.90;;;;;;5091829;28;20412;-76
2021/08/15 03:38:52;;;;;;;;;;;16.50;99.90;;;;;;5091585;28;20140;-76
2021/08/15 03:41:17;;;;;;;;;;;16.50;99.90;;;;;;5091493;28;20416;-76
2021/08/15 03:43:42;;;;;;;;;;;16.50;99.90;;;;;;5091672;28;20340;-76
2021/08/15 03:46:08;;;;;;;;;;;16.50;99.90;;;;;;5091240;28;19916;-76
2021/08/15 03:48:33;;;;;;;;;;;16.50;99.90;;;;;;5091517;28;20379;-76
2021/08/15 03:50:59;;;;;;;;;;;16.50;99.90;;;;;;5090462;28;19908;-76
2021/08/15 03:53:24;;;;;;;;;;;16.60;99.90;;;;;;5091507;28;19915;-76
2021/08/15 03:55:50;;;;;;;;;;;16.60;99.90;;;;;;5091303;28;20026;-76
2021/08/15 03:58:15;;;;;;;;;;;16.60;99.90;;;;;;5091090;28;19908;-76
2021/08/15 04:00:41;;;;;;;;;;;16.60;99.90;;;;;;5091264;28;19908;-76
2021/08/15 04:03:10;;;;;;;;;;;16.60;99.90;;;;;;5091404;28;19912;-76
2021/08/15 04:05:36;;;;;;;;;;;16.50;99.90;;;;;;5088617;28;19985;-76
2021/08/15 04:08:02;;;;;;;;;;;16.40;99.90;;;;;;5093480;28;19959;-76
2021/08/15 04:10:27;;;;;;;;;;;16.30;99.90;;;;;;5111387;28;19915;-76
2021/08/15 04:12:53;;;;;;;;;;;16.30;99.90;;;;;;5111585;28;19964;-76
2021/08/15 04:15:19;;;;;;;;;;;16.20;99.90;;;;;;5112474;28;19915;-76
2021/08/15 04:17:44;;;;;;;;;;;16.20;99.90;;;;;;5115451;28;20322;-76
2021/08/15 04:20:10;;;;;;;;;;;16.10;99.90;;;;;;5114484;28;19915;-76
2021/08/15 04:22:35;;;;;;;;;;;16.10;99.90;;;;;;5115783;28;19939;-76
2021/08/15 04:25:01;;;;;;;;;;;16.00;99.90;;;;;;5114235;28;19908;-76
2021/08/15 04:27:26;;;;;;;;;;;15.90;99.90;;;;;;5115319;28;19922;-76
2021/08/15 04:29:52;;;;;;;;;;;15.90;99.90;;;;;;5115570;28;19908;-76
2021/08/15 04:32:17;;;;;;;;;;;16.00;99.90;;;;;;5115631;28;19908;-76
2021/08/15 04:34:43;;;;;;;;;;;16.00;99.90;;;;;;5115608;28;19908;-76
2021/08/15 04:37:09;;;;;;;;;;;16.00;99.90;;;;;;5098655;28;20011;-76
2021/08/15 04:39:35;;;;;;;;;;;16.10;99.90;;;;;;5094782;28;20038;-76
2021/08/15 04:42:00;;;;;;;;;;;16.10;99.90;;;;;;5094879;28;19908;-76
2021/08/15 04:44:26;;;;;;;;;;;16.20;99.90;;;;;;5094976;28;20323;-76
2021/08/15 04:46:51;;;;;;;;;;;16.20;99.90;;;;;;5094455;28;19923;-76
2021/08/15 04:49:17;;;;;;;;;;;16.20;99.90;;;;;;5094890;28;19927;-76
2021/08/15 04:51:42;;;;;;;;;;;16.30;99.90;;;;;;5093482;28;19915;-76
2021/08/15 04:54:08;;;;;;;;;;;16.30;99.90;;;;;;5093283;28;20015;-76
2021/08/15 04:56:33;;;;;;;;;;;16.30;99.90;;;;;;5094343;28;19908;-76
2021/08/15 04:58:59;;;;;;;;;;;16.30;99.90;;;;;;5094790;28;20390;-76
2021/08/15 05:01:24;;;;;;;;;;;16.40;99.90;;;;;;5093296;28;19915;-77
2021/08/15 05:03:52;;;;;;;;;;;16.40;99.90;;;;;;5094636;28;19947;-77
2021/08/15 05:06:17;;;;;;;;;;;16.50;99.90;;;;;;5092293;28;19999;-77
2021/08/15 05:08:43;;;;;;;;;;;16.50;99.90;;;;;;5094119;28;19962;-77
2021/08/15 05:11:08;;;;;;;;;;;16.60;99.90;;;;;;5094341;28;19962;-76
2021/08/15 05:13:33;;;;;;;;;;;16.60;99.90;;;;;;5094454;28;20361;-77
2021/08/15 05:15:59;;;;;;;;;;;16.70;99.90;;;;;;5093088;28;19912;-77
2021/08/15 05:18:25;;;;;;;;;;;16.70;99.90;;;;;;5092850;28;20368;-77
2021/08/15 05:20:50;;;;;;;;;;;16.80;99.90;;;;;;5094230;28;19908;-77
2021/08/15 05:23:16;;;;;;;;;;;16.80;99.90;;;;;;5094163;28;19908;-77
2021/08/15 05:25:41;;;;;;;;;;;16.90;99.90;;;;;;5094113;28;19913;-76
2021/08/15 05:28:07;;;;;;;;;;;17.00;99.90;;;;;;5092840;28;20401;-77
2021/08/15 05:30:33;;;;;;;;;;;17.10;99.90;;;;;;5094019;28;19929;-76
2021/08/15 05:32:58;;;;;;;;;;;17.20;99.90;;;;;;5094101;28;19915;-77
2021/08/15 05:35:24;;;;;;;;;;;17.30;99.90;;;;;;5093697;28;20584;-77
2021/08/15 05:37:50;;;;;;;;;;;17.40;99.90;;;;;;5089599;28;19908;-76
2021/08/15 05:40:16;;;;;;;;;;;17.50;99.90;;;;;;5093741;28;19908;-76
2021/08/15 05:42:41;;;;;;;;;;;17.60;99.90;;;;;;5093826;28;19959;-77
2021/08/15 05:45:07;;;;;;;;;;;17.70;99.90;;;;;;5093763;28;19912;-77
2021/08/15 05:47:32;;;;;;;;;;;17.70;99.90;;;;;;5093407;28;19912;-77
2021/08/15 05:49:58;;;;;;;;;;;17.80;99.90;;;;;;5093822;28;19908;-77
2021/08/15 05:52:25;;;;;;;;;;;17.90;99.90;;;;;;5093808;28;20428;-76
2021/08/15 05:54:51;;;;;;;;;;;17.90;99.90;;;;;;5093824;28;19940;-76
2021/08/15 05:57:16;;;;;;;;;;;18.00;99.90;;;;;;5093533;28;19962;-77
2021/08/15 05:59:42;;;;;;;;;;;18.10;99.90;;;;;;5093798;28;19915;-76
2021/08/15 06:02:08;;;;;;;;;;;18.10;99.90;;;;;;5093741;28;19951;-77
2021/08/15 06:04:33;;;;;;;;;;;18.20;99.90;;;;;;5092950;28;19908;-77
2021/08/15 06:06:59;;;;;;;;;;;18.30;99.90;;;;;;5090870;28;19912;-77
2021/08/15 06:09:25;;;;;;;;;;;18.40;99.90;;;;;;5093444;28;19908;-77
2021/08/15 06:11:50;;;;;;;;;;;18.40;99.90;;;;;;5093462;28;19908;-77
2021/08/15 06:14:16;;;;;;;;;;;18.50;99.90;;;;;;5093520;28;20324;-77
2021/08/15 06:16:42;;;;;;;;;;;18.60;99.90;;;;;;5093005;28;19915;-76
2021/08/15 06:19:07;;;;;;;;;;;18.70;99.90;;;;;;5093456;28;19916;-77
2021/08/15 06:21:33;;;;;;;;;;;18.80;99.90;;;;;;5093097;28;20376;-77
2021/08/15 06:23:58;;;;;;;;;;;18.90;99.90;;;;;;5093298;28;19915;-77
2021/08/15 06:26:24;;;;;;;;;;;19.00;99.90;;;;;;5092885;28;19908;-77
2021/08/15 06:28:51;;;;;;;;;;;19.20;99.90;;;;;;5093264;28;19912;-77
2021/08/15 06:31:17;;;;;;;;;;;19.30;99.90;;;;;;5093072;28;20023;-77
2021/08/15 06:33:43;;;;;;;;;;;19.40;99.90;;;;;;5093113;28;19914;-77
2021/08/15 06:36:08;;;;;;;;;;;19.50;99.90;;;;;;5090382;28;19986;-77
2021/08/15 06:38:34;;;;;;;;;;;19.60;99.90;;;;;;5092494;28;19955;-77
2021/08/15 06:40:59;;;;;;;;;;;19.70;99.90;;;;;;5092802;28;19908;-77
2021/08/15 06:43:25;;;;;;;;;;;19.80;99.90;;;;;;5092927;28;19908;-76
2021/08/15 06:45:50;;;;;;;;;;;19.90;99.90;;;;;;5092536;28;19921;-77
2021/08/15 06:48:16;;;;;;;;;;;20.00;99.90;;;;;;5092430;28;19912;-77
2021/08/15 06:50:41;;;;;;;;;;;20.20;99.90;;;;;;5092482;28;19916;-77
2021/08/15 06:53:07;;;;;;;;;;;20.20;99.90;;;;;;5092677;28;19916;-77
2021/08/15 06:55:32;;;;;;;;;;;20.40;99.90;;;;;;5091419;28;19955;-77
2021/08/15 06:57:58;;;;;;;;;;;20.50;99.90;;;;;;5092235;28;19908;-77
2021/08/15 07:00:23;;;;;;;;;;;20.50;99.90;;;;;;5092557;28;19908;-77
2021/08/15 07:02:49;;;;;;;;;;;20.70;99.90;;;;;;5092573;28;19915;-77
2021/08/15 07:05:15;;;;;;;;;;;20.80;99.90;;;;;;5091076;28;20400;-77
2021/08/15 07:07:41;;;;;;;;;;;20.90;99.90;;;;;;5088305;28;19919;-77
2021/08/15 07:10:07;;;;;;;;;;;21.10;99.90;;;;;;5092240;28;19912;-77
2021/08/15 07:12:32;;;;;;;;;;;21.60;99.90;;;;;;5092597;28;19916;-77
2021/08/15 07:14:57;;;;;;;;;;;22.10;99.90;;;;;;5092458;28;20003;-77
2021/08/15 07:17:23;;;;;;;;;;;22.30;99.90;;;;;;5091905;28;19908;-77
2021/08/15 07:19:48;;;;;;;;;;;22.50;99.90;;;;;;5091909;28;19942;-78
2021/08/15 07:22:14;;;;;;;;;;;22.40;99.90;;;;;;5092075;28;19916;-77
2021/08/15 07:24:39;;;;;;;;;;;22.90;99.90;;;;;;5090896;28;20276;-77
2021/08/15 07:27:05;;;;;;;;;;;24.00;99.90;;;;;;5090301;28;19951;-77
2021/08/15 07:29:30;;;;;;;;;;;25.30;99.90;;;;;;5092020;28;19908;-77
2021/08/15 07:31:56;;;;;;;;;;;26.30;99.90;;;;;;5091897;28;19912;-77
2021/08/15 07:34:21;;;;;;;;;;;27.40;99.90;;;;;;5091980;28;19954;-77
2021/08/15 07:36:47;;;;;;;;;;;28.20;99.90;;;;;;5089361;28;19912;-77
2021/08/15 07:39:12;;;;;;;;;;;29.00;99.90;;;;;;5091968;28;19916;-77
2021/08/15 07:41:38;;;;;;;;;;;29.50;99.90;;;;;;5092027;28;19931;-77
2021/08/15 07:44:04;;;;;;;;;;;30.00;99.90;;;;;;5091775;28;20395;-78
2021/08/15 07:46:29;;;;;;;;;;;30.30;99.90;;;;;;5091347;28;20391;-78
2021/08/15 07:48:56;;;;;;;;;;;30.70;99.90;;;;;;5090380;28;19951;-77
2021/08/15 07:51:21;;;;;;;;;;;30.70;99.90;;;;;;5090921;28;19944;-77
2021/08/15 07:53:47;;;;;;;;;;;31.10;99.90;;;;;;5091593;28;19919;-78
2021/08/15 07:56:12;;;;;;;;;;;31.50;99.90;;;;;;5089882;28;20254;-78
2021/08/15 07:58:38;;;;;;;;;;;31.70;99.90;;;;;;5088687;28;19912;-78
2021/08/15 08:01:03;;;;;;;;;;;31.90;99.90;;;;;;5088480;28;19909;-78
2021/08/15 08:03:29;;;;;;;;;;;32.00;99.90;;;;;;5088690;28;19908;-78
2021/08/15 08:05:54;;;;;;;;;;;32.10;99.60;;;;;;5086152;28;19916;-78
2021/08/15 08:08:20;;;;;;;;;;;32.10;99.60;;;;;;5088344;28;19912;-78
2021/08/15 08:10:47;;;;;;;;;;;32.40;98.40;;;;;;5088298;28;19979;-78
2021/08/15 08:13:13;;;;;;;;;;;32.10;98.80;;;;;;5090191;28;20434;-78
2021/08/15 08:15:39;;;;;;;;;;;32.00;99.60;;;;;;5091519;28;19947;-78
2021/08/15 08:18:05;;;;;;;;;;;31.80;98.80;;;;;;5090991;28;19915;-78
2021/08/15 08:20:35;;;;;;;;;;;32.10;99.40;;;;;;5091293;28;20269;-77
2021/08/15 08:23:01;;;;;;;;;;;32.30;99.30;;;;;;5091481;28;19936;-78
2021/08/15 08:25:26;;;;;;;;;;;32.50;97.60;;;;;;5091363;28;19963;-78
2021/08/15 08:27:52;;;;;;;;;;;32.50;98.30;;;;;;5090984;28;19970;-78
2021/08/15 08:30:17;;;;;;;;;;;32.40;96.80;;;;;;5091299;28;20473;-77
2021/08/15 08:32:43;;;;;;;;;;;31.80;98.90;;;;;;5091232;28;19918;-78
2021/08/15 08:35:09;;;;;;;;;;;31.60;99.00;;;;;;5091195;28;19912;-78
2021/08/15 08:37:34;;;;;;;;;;;31.60;97.60;;;;;;5088641;28;20354;-78
2021/08/15 08:40:00;;;;;;;;;;;31.50;98.60;;;;;;5091223;28;19915;-78
2021/08/15 08:42:27;;;;;;;;;;;31.80;99.10;;;;;;5091194;28;20387;-78
2021/08/15 08:44:54;;;;;;;;;;;32.10;97.20;;;;;;5091723;28;20281;-78
2021/08/15 08:47:20;;;;;;;;;;;32.30;99.00;;;;;;5090583;28;19917;-78
2021/08/15 08:49:46;;;;;;;;;;;32.50;98.10;;;;;;5091156;28;19935;-78
2021/08/15 08:52:11;;;;;;;;;;;32.90;97.10;;;;;;5090907;28;19908;-78
2021/08/15 08:54:37;;;;;;;;;;;32.70;97.30;;;;;;5090838;28;20120;-78
2021/08/15 08:57:02;;;;;;;;;;;32.90;95.60;;;;;;5090869;28;20388;-78
2021/08/15 08:59:28;;;;;;;;;;;33.00;96.20;;;;;;5089732;28;19908;-78
2021/08/15 09:01:53;;;;;;;;;;;32.70;95.60;;;;;;5092598;28;20346;-78
2021/08/15 09:04:19;;;;;;;;;;;32.40;95.30;;;;;;5094735;28;20406;-77
2021/08/15 09:06:44;;;;;;;;;;;31.80;96.40;;;;;;5090783;28;19986;-78
2021/08/15 09:09:10;;;;;;;;;;;31.80;96.40;;;;;;5094505;28;20361;-78
2021/08/15 09:11:36;;;;;;;;;;;32.10;98.80;;;;;;5094567;28;19954;-78
2021/08/15 09:14:09;;;;;;;;;;;32.30;96.10;;;;;;5094598;28;19908;-78
2021/08/15 09:16:53;;;;;;;;;;;32.40;96.00;;;;;;5094120;28;19908;-78
2021/08/15 09:19:25;;;;;;;;;;;32.80;95.20;;;;;;5094601;28;20439;-78
2021/08/15 09:21:51;;;;;;;;;;;33.10;96.80;;;;;;5094290;28;19912;-78
2021/08/15 09:24:16;;;;;;;;;;;33.10;93.90;;;;;;5095577;28;19912;-79
2021/08/15 09:26:55;;;;;;;;;;;33.20;96.30;;;;;;5099976;28;19960;-79
2021/08/15 09:29:21;;;;;;;;;;;33.40;95.10;;;;;;5097504;28;20011;-79
2021/08/15 09:31:47;;;;;;;;;;;33.80;94.00;;;;;;5097127;28;20348;-78
2021/08/15 09:34:23;;;;;;;;;;;33.60;94.50;;;;;;5100509;28;20025;-78
2021/08/15 09:36:49;;;;;;;;;;;32.80;93.90;;;;;;5087817;28;19975;-79
2021/08/15 09:39:14;;;;;;;;;;;32.20;95.70;;;;;;5102771;28;20384;-79
2021/08/15 09:41:48;;;;;;;;;;;32.20;96.00;;;;;;5101870;28;19915;-80
2021/08/15 09:44:18;;;;;;;;;;;32.10;95.10;;;;;;5101289;28;19908;-79
2021/08/15 09:46:57;;;;;;;;;;;32.40;97.10;;;;;;5097834;28;19966;-79
2021/08/15 09:49:22;;;;;;;;;;;32.40;97.40;;;;;;5099737;28;20395;-79
2021/08/15 09:51:48;;;;;;;;;;;32.60;95.50;;;;;;5100203;28;19908;-80
2021/08/15 09:54:17;;;;;;;;;;;32.90;95.50;;;;;;5099765;28;19913;-79
2021/08/15 09:56:43;;;;;;;;;;;32.80;94.00;;;;;;5099523;28;19922;-80
2021/08/15 09:59:13;;;;;;;;;;;33.10;97.70;;;;;;5106303;28;19908;-80
2021/08/15 10:01:58;;;;;;;;;;;33.50;96.10;;;;;;5121804;28;19998;-79
2021/08/15 10:04:25;;;;;;;;;;;33.30;97.30;;;;;;5118991;28;19947;-79
2021/08/15 10:06:51;;;;;;;;;;;33.40;96.90;;;;;;5104211;28;19958;-82
2021/08/15 10:09:18;;;;;;;;;;;33.30;95.30;;;;;;5111707;28;20386;-81
2021/08/15 10:11:43;;;;;;;;;;;32.60;95.30;;;;;;5111985;28;19908;-81
2021/08/15 10:14:10;;;;;;;;;;;31.90;95.70;;;;;;5098565;28;20462;-79
2021/08/15 10:16:54;;;;;;;;;;;31.30;96.50;;;;;;5101702;28;19939;-79
2021/08/15 10:19:25;;;;;;;;;;;31.00;96.60;;;;;;5101224;28;19983;-79
2021/08/15 10:21:51;;;;;;;;;;;30.70;97.10;;;;;;5101870;28;19954;-79
2021/08/15 10:24:17;;;;;;;;;;;30.80;97.50;;;;;;5101512;28;19912;-80
2021/08/15 10:26:47;;;;;;;;;;;30.90;98.70;;;;;;5100000;28;19908;-80
2021/08/15 10:29:55;;;;;;;;;;;31.40;99.40;;;;;;5099168;28;19940;-79
2021/08/15 10:32:21;;;;;;;;;;;32.00;97.70;;;;;;5054192;28;19909;-80
2021/08/15 10:34:49;;;;;;;;;;;32.20;97.50;;;;;;5056112;28;19909;-80
2021/08/15 10:37:27;;;;;;;;;;;32.20;96.80;;;;;;5077134;28;20361;-79
2021/08/15 10:40:03;;;;;;;;;;;32.00;97.20;;;;;;5116280;28;19908;-80
2021/08/15 10:42:34;;;;;;;;;;;31.80;98.40;;;;;;5119141;28;19960;-80
2021/08/15 10:45:01;;;;;;;;;;;31.70;96.60;;;;;;5119011;28;20370;-80
2021/08/15 10:47:27;;;;;;;;;;;31.70;97.40;;;;;;5118140;28;19919;-80
2021/08/15 10:50:02;;;;;;;;;;;31.60;97.80;;;;;;5118034;28;19933;-80
2021/08/15 10:52:28;;;;;;;;;;;31.70;97.40;;;;;;5117552;28;19919;-80
2021/08/15 10:54:59;;;;;;;;;;;31.90;97.30;;;;;;5119868;28;19908;-80
2021/08/15 10:57:34;;;;;;;;;;;32.20;98.30;;;;;;5116718;28;19991;-80
2021/08/15 10:59:59;;;;;;;;;;;32.50;97.60;;;;;;5119119;28;19908;-79
2021/08/15 11:02:31;;;;;;;;;;;33.00;94.70;;;;;;5119187;28;19915;-79
2021/08/15 11:05:00;;;;;;;;;;;32.90;95.40;;;;;;5117802;28;19912;-79
2021/08/15 11:07:39;;;;;;;;;;;32.80;95.50;;;;;;5100007;28;19909;-79
2021/08/15 11:10:07;;;;;;;;;;;33.00;94.90;;;;;;5099050;28;20011;-79
2021/08/15 11:12:32;;;;;;;;;;;32.80;94.40;;;;;;5099907;28;19968;-79
2021/08/15 11:14:58;;;;;;;;;;;33.00;93.70;;;;;;5096203;28;19948;-79
2021/08/15 11:17:24;;;;;;;;;;;33.10;92.50;;;;;;5096224;28;19908;-80
2021/08/15 11:19:50;;;;;;;;;;;33.50;96.10;;;;;;5099421;28;20259;-79
2021/08/15 11:22:21;;;;;;;;;;;34.20;96.30;;;;;;5098064;28;19991;-80
2021/08/15 11:24:50;;;;;;;;;;;34.80;94.70;;;;;;5097276;28;20117;-80
2021/08/15 11:27:18;;;;;;;;;;;35.40;91.70;;;;;;5097353;28;19909;-80
2021/08/15 11:29:44;;;;;;;;;;;35.60;91.90;;;;;;5098720;28;19908;-80
2021/08/15 11:32:10;;;;;;;;;;;35.50;91.30;;;;;;5096132;28;19912;-80
2021/08/15 11:34:36;;;;;;;;;;;34.80;91.80;;;;;;5098351;28;19908;-80
2021/08/15 11:37:03;;;;;;;;;;;34.90;91.90;;;;;;5091219;28;20377;-80
2021/08/15 11:39:29;;;;;;;;;;;35.10;90.40;;;;;;5098618;28;19915;-79
2021/08/15 11:41:55;;;;;;;;;;;34.70;90.30;;;;;;5098561;28;19916;-79
2021/08/15 11:44:21;;;;;;;;;;;34.20;92.00;;;;;;5099443;28;19908;-80
2021/08/15 11:46:46;;;;;;;;;;;34.00;92.70;;;;;;5096722;28;19917;-80
2021/08/15 11:49:29;;;;;;;;;;;34.30;92.60;;;;;;5097589;28;19912;-80
2021/08/15 11:52:10;;;;;;;;;;;34.80;92.10;;;;;;5097668;28;19908;-80
2021/08/15 11:54:37;;;;;;;;;;;35.20;90.70;;;;;;5097570;28;19908;-80
2021/08/15 11:57:02;;;;;;;;;;;35.30;90.50;;;;;;5097205;28;19915;-80
2021/08/15 11:59:28;;;;;;;;;;;35.40;86.40;;;;;;5091046;28;19908;-79
2021/08/15 12:01:53;;;;;;;;;;;35.20;89.60;;;;;;5094563;28;19908;-80
2021/08/15 12:04:19;;;;;;;;;;;35.60;90.80;;;;;;5096618;28;20010;-80
2021/08/15 12:06:45;;;;;;;;;;;35.90;90.40;;;;;;5089540;28;19909;-80
2021/08/15 12:09:21;;;;;;;;;;;36.40;86.00;;;;;;5094666;28;20314;-79
2021/08/15 12:11:56;;;;;;;;;;;36.40;84.10;;;;;;5093012;28;20101;-79
2021/08/15 12:14:22;;;;;;;;;;;36.40;85.90;;;;;;5093156;28;19916;-79
2021/08/15 12:16:54;;;;;;;;;;;35.80;85.80;;;;;;5091698;28;19912;-79
2021/08/15 12:19:21;;;;;;;;;;;35.10;85.50;;;;;;5091603;28;19908;-79
2021/08/15 12:21:47;;;;;;;;;;;34.20;89.80;;;;;;5091825;28;19912;-80
2021/08/15 12:24:12;;;;;;;;;;;33.70;89.80;;;;;;5091819;28;19908;-79
2021/08/15 12:26:42;;;;;;;;;;;32.90;91.10;;;;;;5091538;28;19961;-79
2021/08/15 12:29:17;;;;;;;;;;;32.00;92.40;;;;;;5093244;28;19916;-79
2021/08/15 12:31:43;;;;;;;;;;;30.60;94.20;;;;;;5091783;28;19930;-79
2021/08/15 12:34:10;;;;;;;;;;;29.00;95.90;;;;;;5092029;28;20340;-78
2021/08/15 12:36:43;;;;;;;;;;;26.60;98.10;;;;;;5086874;28;19995;-80
2021/08/15 12:39:09;;;;;;;;;;;22.70;99.90;;;;;;5087307;28;19908;-85
2021/08/15 12:41:44;;;;;;;;;;;20.80;99.90;;;;;;5095558;28;20422;-83
2021/08/15 12:44:10;;;;;;;;;;;20.00;99.90;;;;;;5094340;28;19953;-82
2021/08/15 12:46:36;;;;;;;;;;;19.30;99.90;;;;;;5094232;28;19965;-81
2021/08/15 12:49:19;;;;;;;;;;;18.90;99.90;;;;;;5096201;28;19915;-81
2021/08/15 12:51:45;;;;;;;;;;;18.90;99.90;;;;;;5095549;28;20323;-81
2021/08/15 12:54:10;;;;;;;;;;;18.80;99.90;;;;;;5096849;28;19908;-80
2021/08/15 12:56:36;;;;;;;;;;;18.80;99.90;;;;;;5097533;28;19909;-80
2021/08/15 12:59:01;;;;;;;;;;;18.80;99.90;;;;;;5097792;28;19952;-80
2021/08/15 13:01:27;;;;;;;;;;;18.90;99.90;;;;;;5096921;28;20372;-80
2021/08/15 13:03:52;;;;;;;;;;;19.00;99.90;;;;;;5096265;28;19912;-80
2021/08/15 13:06:21;;;;;;;;;;;19.10;99.90;;;;;;5093050;28;20032;-80
2021/08/15 13:08:47;;;;;;;;;;;19.10;99.90;;;;;;5094422;28;19915;-80
2021/08/15 13:11:12;;;;;;;;;;;19.10;99.90;;;;;;5097285;28;19915;-79
2021/08/15 13:13:38;;;;;;;;;;;19.20;99.90;;;;;;5096385;28;19908;-79
2021/08/15 13:16:03;;;;;;;;;;;19.00;99.90;;;;;;5096040;28;19908;-80
2021/08/15 13:18:29;;;;;;;;;;;18.90;99.90;;;;;;5097090;28;20349;-80
2021/08/15 13:20:54;;;;;;;;;;;18.80;99.90;;;;;;5096753;28;19908;-80
2021/08/15 13:23:20;;;;;;;;;;;18.70;99.90;;;;;;5096408;28;20455;-80
2021/08/15 13:25:49;;;;;;;;;;;18.70;99.90;;;;;;5095684;28;19908;-80
2021/08/15 13:28:19;;;;;;;;;;;18.80;99.90;;;;;;5095668;28;20011;-79
2021/08/15 13:30:44;;;;;;;;;;;18.80;99.90;;;;;;5095356;28;19955;-79
2021/08/15 13:33:10;;;;;;;;;;;18.90;99.90;;;;;;5095466;28;19952;-78
2021/08/15 13:35:35;;;;;;;;;;;19.00;99.90;;;;;;5094590;28;19969;-78
2021/08/15 13:38:01;;;;;;;;;;;19.10;99.90;;;;;;5088630;28;20360;-79
2021/08/15 13:40:26;;;;;;;;;;;19.10;99.90;;;;;;5095960;28;19922;-78
2021/08/15 13:42:52;;;;;;;;;;;19.40;99.90;;;;;;5094959;28;20116;-78
2021/08/15 13:45:18;;;;;;;;;;;19.80;99.90;;;;;;5094237;28;19916;-78
2021/08/15 13:47:45;;;;;;;;;;;20.00;99.90;;;;;;5093047;28;19912;-78
2021/08/15 13:50:11;;;;;;;;;;;20.20;99.90;;;;;;5094164;28;20315;-78
2021/08/15 13:52:37;;;;;;;;;;;20.20;99.90;;;;;;5093987;28;20003;-78
2021/08/15 13:55:03;;;;;;;;;;;20.10;99.90;;;;;;5093925;28;19947;-78
2021/08/15 13:57:28;;;;;;;;;;;20.10;99.90;;;;;;5093390;28;20275;-78
2021/08/15 13:59:54;;;;;;;;;;;20.10;99.90;;;;;;5093497;28;19908;-78
2021/08/15 14:02:20;;;;;;;;;;;20.00;99.90;;;;;;5093841;28;20364;-78
2021/08/15 14:04:46;;;;;;;;;;;19.90;99.90;;;;;;5093563;28;20026;-78
2021/08/15 14:07:12;;;;;;;;;;;19.90;99.90;;;;;;5085598;28;19974;-78
2021/08/15 14:09:38;;;;;;;;;;;20.00;99.90;;;;;;5091875;28;19952;-78
2021/08/15 14:12:04;;;;;;;;;;;20.10;99.90;;;;;;5093481;28;20311;-78
2021/08/15 14:14:29;;;;;;;;;;;20.40;99.90;;;;;;5093216;28;19962;-78